Time;durP1;ratioP1;P1;durP2;ratioP2;P2;SDS_P1;SDS_P2;PMS_P1;PMS_P2;Temp;Humidity;BMP_temperature;BMP_pressure;BME280_temperature;BME280_humidity;BME280_pressure;Samples;Min_cycle;Max_cycle;Signal;HPM_P1;HPM_P2
2022/08/27 00:01:10;;;;;;;10.25;5.60;;;16.20;79.00;;;;;;5008006;28;20045;-72
2022/08/27 00:03:36;;;;;;;12.20;6.15;;;16.20;79.20;;;;;;5007520;28;20140;-72
2022/08/27 00:06:02;;;;;;;11.05;5.97;;;16.20;79.30;;;;;;5017803;28;20550;-72
2022/08/27 00:08:28;;;;;;;11.55;6.75;;;16.20;79.50;;;;;;5013547;28;20048;-73
2022/08/27 00:10:54;;;;;;;9.75;6.20;;;16.10;79.50;;;;;;5018412;28;20145;-72
2022/08/27 00:13:19;;;;;;;10.85;6.03;;;16.10;79.40;;;;;;5013997;28;20057;-73
2022/08/27 00:15:45;;;;;;;10.75;6.65;;;16.10;79.50;;;;;;5014639;28;20030;-72
2022/08/27 00:18:11;;;;;;;14.30;6.57;;;16.10;79.50;;;;;;5008045;28;20164;-73
2022/08/27 00:20:36;;;;;;;10.73;5.93;;;16.10;79.50;;;;;;5003430;28;20030;-72
2022/08/27 00:23:02;;;;;;;9.90;6.07;;;16.10;79.50;;;;;;5004205;28;20401;-74
2022/08/27 00:25:28;;;;;;;13.30;6.30;;;16.10;79.60;;;;;;5020570;28;20072;-72
2022/08/27 00:27:53;;;;;;;10.85;5.57;;;16.10;79.60;;;;;;5009597;28;20038;-72
2022/08/27 00:30:21;;;;;;;10.90;6.22;;;16.10;79.70;;;;;;5008058;28;20128;-72
2022/08/27 00:32:48;;;;;;;13.10;6.78;;;16.10;79.70;;;;;;5009144;28;20091;-72
2022/08/27 00:35:14;;;;;;;10.95;6.38;;;16.10;79.90;;;;;;5013993;28;20034;-72
2022/08/27 00:37:41;;;;;;;9.23;6.32;;;16.10;80.00;;;;;;5016447;28;20085;-72
2022/08/27 00:40:10;;;;;;;10.57;6.40;;;16.10;79.90;;;;;;5022547;28;20068;-72
2022/08/27 00:42:36;;;;;;;12.60;6.25;;;16.00;80.00;;;;;;5022506;28;20528;-72
2022/08/27 00:45:04;;;;;;;12.30;5.97;;;16.10;80.10;;;;;;5023969;28;20061;-72
2022/08/27 00:47:32;;;;;;;9.88;6.43;;;16.00;80.10;;;;;;5023244;28;20045;-72
2022/08/27 00:50:04;;;;;;;12.07;6.43;;;16.00;80.10;;;;;;5017358;28;20121;-73
2022/08/27 00:52:40;;;;;;;11.43;6.22;;;16.00;80.10;;;;;;5010762;28;20049;-72
2022/08/27 00:55:12;;;;;;;9.30;5.25;;;16.10;80.00;;;;;;5012252;28;20041;-72
2022/08/27 00:57:41;;;;;;;10.63;5.53;;;16.00;80.10;;;;;;5012649;28;20484;-72
2022/08/27 01:00:11;;;;;;;9.52;5.50;;;16.00;79.90;;;;;;5021094;28;20046;-75
2022/08/27 01:02:37;;;;;;;8.23;5.53;;;15.90;79.70;;;;;;5013087;28;20061;-72
2022/08/27 01:05:17;;;;;;;12.45;6.03;;;15.90;79.50;;;;;;5013196;28;20041;-74
2022/08/27 01:07:46;;;;;;;11.68;6.13;;;15.80;79.30;;;;;;5060440;28;20053;-73
2022/08/27 01:10:16;;;;;;;9.90;6.05;;;15.70;79.30;;;;;;5013793;28;20030;-73
2022/08/27 01:12:42;;;;;;;11.93;6.65;;;15.70;79.40;;;;;;5014412;28;20057;-73
2022/08/27 01:15:12;;;;;;;11.18;6.10;;;15.70;79.60;;;;;;5016391;28;20219;-73
2022/08/27 01:17:39;;;;;;;11.40;6.15;;;15.60;79.80;;;;;;5014923;28;20141;-72
2022/08/27 01:20:10;;;;;;;10.57;6.20;;;15.60;79.70;;;;;;5016309;28;20033;-73
2022/08/27 01:22:39;;;;;;;10.15;6.07;;;15.60;79.80;;;;;;5017764;28;20512;-73
2022/08/27 01:25:08;;;;;;;10.98;5.93;;;15.60;79.90;;;;;;5015877;28;20053;-73
2022/08/27 01:27:35;;;;;;;11.30;6.55;;;15.60;79.80;;;;;;5016171;28;20026;-73
2022/08/27 01:30:02;;;;;;;11.10;6.63;;;15.60;79.80;;;;;;5023774;28;20518;-74
2022/08/27 01:32:33;;;;;;;9.38;6.05;;;15.60;79.80;;;;;;5017178;28;20428;-75
2022/08/27 01:35:00;;;;;;;10.57;6.78;;;15.50;79.90;;;;;;5027097;28;20030;-73
2022/08/27 01:37:27;;;;;;;11.40;6.38;;;15.50;80.00;;;;;;5017748;28;20113;-73
2022/08/27 01:39:55;;;;;;;10.40;6.25;;;15.40;80.20;;;;;;5018710;28;20030;-72
2022/08/27 01:42:26;;;;;;;11.18;6.60;;;15.50;80.30;;;;;;5020349;28;20282;-72
2022/08/27 01:45:00;;;;;;;9.93;6.75;;;15.40;80.20;;;;;;5018424;28;20053;-72
2022/08/27 01:47:28;;;;;;;10.60;7.38;;;15.40;80.50;;;;;;5014082;28;20049;-72
2022/08/27 01:49:53;;;;;;;11.40;6.57;;;15.30;80.60;;;;;;5012478;28;20095;-72
2022/08/27 01:52:22;;;;;;;11.70;6.72;;;15.40;80.70;;;;;;5008433;28;20470;-72
2022/08/27 01:54:49;;;;;;;14.70;6.97;;;15.30;80.70;;;;;;5015491;28;20096;-72
2022/08/27 01:57:18;;;;;;;14.27;8.07;;;15.20;80.50;;;;;;5024702;28;20037;-72
2022/08/27 01:59:44;;;;;;;9.50;6.65;;;15.20;80.60;;;;;;5013607;28;20042;-73
2022/08/27 02:02:12;;;;;;;10.52;6.28;;;15.10;80.60;;;;;;5019889;28;20036;-72
2022/08/27 02:04:37;;;;;;;9.57;6.57;;;15.10;80.70;;;;;;5013213;28;20033;-72
2022/08/27 02:07:04;;;;;;;10.35;6.60;;;15.10;80.70;;;;;;5015509;28;20026;-73
2022/08/27 02:09:30;;;;;;;11.95;7.65;;;15.00;80.80;;;;;;5017427;28;20060;-72
2022/08/27 02:11:56;;;;;;;12.20;6.78;;;15.00;80.90;;;;;;5013805;28;20077;-73
2022/08/27 02:14:22;;;;;;;10.30;7.15;;;15.10;81.00;;;;;;5015649;28;20034;-73
2022/08/27 02:16:48;;;;;;;10.13;6.38;;;15.10;81.10;;;;;;5013288;28;20069;-73
2022/08/27 02:19:14;;;;;;;12.00;7.57;;;15.00;81.10;;;;;;5012483;28;20156;-72
2022/08/27 02:21:39;;;;;;;11.90;6.85;;;15.10;81.10;;;;;;5011731;28;20112;-73
2022/08/27 02:24:05;;;;;;;9.70;6.32;;;15.00;80.60;;;;;;5018205;28;20482;-73
2022/08/27 02:26:31;;;;;;;11.65;6.63;;;15.00;80.50;;;;;;5022516;28;20165;-73
2022/08/27 02:28:56;;;;;;;9.77;6.20;;;14.90;80.60;;;;;;5019610;28;20057;-72
2022/08/27 02:31:22;;;;;;;10.93;7.43;;;14.90;80.70;;;;;;5011200;28;20066;-72
2022/08/27 02:33:48;;;;;;;14.25;7.60;;;14.90;80.80;;;;;;5012020;28;20954;-72
2022/08/27 02:36:15;;;;;;;11.02;7.03;;;14.80;80.50;;;;;;5020824;28;20117;-73
2022/08/27 02:38:41;;;;;;;13.68;7.30;;;14.70;81.00;;;;;;5021724;28;20048;-72
2022/08/27 02:41:06;;;;;;;10.57;6.97;;;14.70;81.20;;;;;;5010063;28;20042;-74
2022/08/27 02:43:32;;;;;;;11.77;6.93;;;14.70;81.20;;;;;;5010555;28;20040;-72
2022/08/27 02:46:00;;;;;;;11.70;7.10;;;14.70;81.20;;;;;;5011671;28;20042;-75
2022/08/27 02:48:26;;;;;;;10.02;6.95;;;14.60;81.40;;;;;;5018009;28;20041;-72
2022/08/27 02:50:52;;;;;;;10.43;7.18;;;14.70;81.50;;;;;;5017911;28;20132;-73
2022/08/27 02:53:17;;;;;;;12.25;7.72;;;14.70;81.40;;;;;;5013083;28;20674;-72
2022/08/27 02:55:44;;;;;;;10.90;7.95;;;14.70;81.30;;;;;;5010306;28;20543;-72
2022/08/27 02:58:14;;;;;;;11.18;9.05;;;14.60;81.50;;;;;;5010942;28;20473;-73
2022/08/27 03:00:40;;;;;;;11.90;8.07;;;14.60;81.90;;;;;;5014253;28;20545;-72
2022/08/27 03:03:05;;;;;;;11.98;7.82;;;14.60;82.10;;;;;;5002778;28;20125;-72
2022/08/27 03:05:31;;;;;;;12.27;8.27;;;14.70;82.10;;;;;;5017693;28;20076;-73
2022/08/27 03:07:58;;;;;;;12.55;8.40;;;14.70;81.90;;;;;;5016923;28;20026;-72
2022/08/27 03:10:24;;;;;;;12.18;7.95;;;14.60;81.70;;;;;;5018060;28;20439;-73
2022/08/27 03:12:50;;;;;;;11.18;7.43;;;14.60;81.80;;;;;;5011289;28;20041;-73
2022/08/27 03:15:17;;;;;;;11.55;8.32;;;14.60;81.90;;;;;;5007873;28;20026;-72
2022/08/27 03:20:28;;;;;;;10.18;7.63;;;14.60;81.90;;;;;;5002369;28;20398;-72
2022/08/27 03:22:53;;;;;;;13.25;7.47;;;14.60;81.80;;;;;;5014359;28;20025;-72
2022/08/27 03:25:20;;;;;;;13.13;7.65;;;14.60;81.70;;;;;;5008289;28;20133;-73
2022/08/27 03:27:46;;;;;;;10.88;7.80;;;14.60;81.60;;;;;;5009721;28;20533;-73
2022/08/27 03:30:18;;;;;;;11.18;7.95;;;14.60;81.70;;;;;;5007487;28;20129;-72
2022/08/27 03:32:45;;;;;;;11.48;8.20;;;14.50;81.60;;;;;;5013626;28;20096;-72
2022/08/27 03:35:12;;;;;;;11.77;7.97;;;14.50;81.70;;;;;;5018865;28;20092;-72
2022/08/27 03:37:38;;;;;;;10.45;7.97;;;14.40;81.80;;;;;;5014695;28;20041;-73
2022/08/27 03:40:06;;;;;;;12.73;9.02;;;14.40;81.80;;;;;;5017680;28;20045;-73
2022/08/27 03:42:33;;;;;;;11.18;7.60;;;14.40;82.00;;;;;;5014941;28;20037;-73
2022/08/27 03:44:59;;;;;;;11.20;7.53;;;14.30;82.20;;;;;;5022064;28;20037;-72
2022/08/27 03:47:25;;;;;;;11.95;7.88;;;14.30;82.10;;;;;;5002639;28;20030;-73
2022/08/27 03:49:51;;;;;;;10.37;7.27;;;14.30;81.90;;;;;;5019627;28;20473;-72
2022/08/27 03:52:17;;;;;;;11.55;8.10;;;14.30;82.10;;;;;;5008916;28;20547;-74
2022/08/27 03:54:42;;;;;;;11.82;8.45;;;14.20;82.10;;;;;;5020772;28;20041;-72
2022/08/27 03:57:08;;;;;;;10.55;8.07;;;14.10;82.30;;;;;;5024551;28;20049;-72
2022/08/27 03:59:34;;;;;;;9.57;7.13;;;14.20;82.30;;;;;;5010901;28;20030;-72
2022/08/27 04:02:01;;;;;;;11.40;7.70;;;14.20;82.00;;;;;;5019548;28;20064;-73
2022/08/27 04:04:27;;;;;;;11.88;8.23;;;14.20;81.90;;;;;;5008085;28;20045;-72
2022/08/27 04:06:53;;;;;;;10.52;7.78;;;14.10;82.00;;;;;;5012284;28;20042;-72
2022/08/27 04:09:19;;;;;;;10.90;6.78;;;14.10;82.10;;;;;;5017529;28;20393;-72
2022/08/27 04:11:44;;;;;;;11.43;8.13;;;14.10;82.20;;;;;;5015084;28;20053;-73
2022/08/27 04:14:10;;;;;;;12.40;8.43;;;14.10;82.20;;;;;;5014981;28;20041;-73
2022/08/27 04:16:36;;;;;;;11.15;7.53;;;14.10;82.30;;;;;;5009099;28;20537;-73
2022/08/27 04:19:02;;;;;;;11.50;8.20;;;14.10;82.30;;;;;;5012411;28;20033;-73
2022/08/27 04:21:28;;;;;;;12.25;7.63;;;14.10;82.40;;;;;;5013782;28;20048;-74
2022/08/27 04:23:55;;;;;;;12.18;8.10;;;14.10;82.20;;;;;;5028104;28;20087;-72
2022/08/27 04:26:22;;;;;;;12.88;8.73;;;14.10;82.10;;;;;;5024925;28;20110;-73
2022/08/27 04:28:48;;;;;;;10.63;7.65;;;14.10;82.10;;;;;;5012221;28;20034;-72
2022/08/27 04:31:13;;;;;;;11.23;8.05;;;14.10;82.00;;;;;;5012615;28;20505;-72
2022/08/27 04:33:39;;;;;;;11.70;8.10;;;14.10;81.80;;;;;;5018487;28;20056;-72
2022/08/27 04:36:09;;;;;;;11.80;7.47;;;14.10;81.80;;;;;;5024100;28;20095;-72
2022/08/27 04:38:35;;;;;;;11.55;7.80;;;14.10;81.80;;;;;;5017941;28;20033;-73
2022/08/27 04:41:22;;;;;;;13.38;8.27;;;14.00;81.80;;;;;;5026657;28;20049;-75
2022/08/27 04:43:52;;;;;;;10.48;7.80;;;14.10;81.80;;;;;;5017459;28;20361;-72
2022/08/27 04:46:30;;;;;;;12.88;8.13;;;14.00;81.70;;;;;;5026733;28;20510;-73
2022/08/27 04:49:04;;;;;;;12.27;7.85;;;14.00;81.50;;;;;;5010621;28;20083;-73
2022/08/27 04:51:30;;;;;;;12.07;8.43;;;14.00;81.60;;;;;;5014603;28;20045;-74
2022/08/27 04:53:56;;;;;;;11.18;7.85;;;13.90;81.60;;;;;;5014211;28;20048;-73
2022/08/27 04:56:22;;;;;;;11.38;8.52;;;13.80;82.00;;;;;;5006713;28;20405;-74
2022/08/27 04:58:51;;;;;;;12.90;8.52;;;13.90;82.20;;;;;;5030829;28;20333;-73
2022/08/27 05:01:20;;;;;;;11.85;8.38;;;13.90;82.20;;;;;;5011091;28;20045;-73
2022/08/27 05:03:46;;;;;;;12.60;8.95;;;13.90;82.40;;;;;;5021257;28;20473;-73
2022/08/27 05:06:12;;;;;;;13.38;8.43;;;14.00;82.40;;;;;;5011610;28;20037;-73
2022/08/27 05:08:38;;;;;;;13.23;8.35;;;14.00;82.30;;;;;;5014691;28;20429;-72
2022/08/27 05:11:08;;;;;;;10.85;8.13;;;14.00;82.30;;;;;;5019942;28;20037;-73
2022/08/27 05:13:34;;;;;;;10.52;8.05;;;14.10;82.30;;;;;;5013516;28;20409;-73
2022/08/27 05:16:02;;;;;;;11.10;8.80;;;14.10;82.40;;;;;;5020394;28;20044;-73
2022/08/27 05:18:28;;;;;;;10.50;8.10;;;14.10;82.30;;;;;;5011427;28;20048;-74
2022/08/27 05:20:54;;;;;;;11.80;7.97;;;14.20;82.30;;;;;;5020693;28;20464;-72
2022/08/27 05:23:20;;;;;;;12.00;8.60;;;14.20;82.20;;;;;;5018880;28;20121;-72
2022/08/27 05:25:48;;;;;;;10.43;7.32;;;14.30;82.10;;;;;;5025748;28;20030;-72
2022/08/27 05:28:15;;;;;;;12.40;8.65;;;14.30;81.90;;;;;;5010427;28;20485;-72
2022/08/27 05:30:45;;;;;;;10.82;8.20;;;14.40;81.60;;;;;;5013240;28;20044;-72
2022/08/27 05:33:13;;;;;;;10.57;8.40;;;14.40;81.50;;;;;;5017544;28;20056;-72
2022/08/27 05:35:58;;;;;;;13.02;9.55;;;14.40;81.50;;;;;;5019709;28;20081;-72
2022/08/27 05:38:26;;;;;;;14.68;9.20;;;14.40;81.70;;;;;;5015834;28;20033;-72
2022/08/27 05:41:07;;;;;;;13.65;9.35;;;14.40;81.90;;;;;;5016893;28;20042;-72
2022/08/27 05:43:34;;;;;;;14.57;9.50;;;14.50;82.00;;;;;;5019349;28;20117;-72
2022/08/27 05:46:04;;;;;;;11.20;8.18;;;14.50;82.10;;;;;;5032193;28;20048;-72
2022/08/27 05:48:31;;;;;;;11.88;8.98;;;14.60;82.10;;;;;;5014100;28;20481;-73
2022/08/27 05:50:56;;;;;;;13.85;8.60;;;14.60;82.00;;;;;;5015088;28;20053;-74
2022/08/27 05:53:22;;;;;;;11.90;9.13;;;14.70;82.00;;;;;;5013729;28;20045;-71
2022/08/27 05:55:48;;;;;;;12.55;9.45;;;14.70;82.00;;;;;;5020230;28;20045;-72
2022/08/27 06:01:06;;;;;;;12.60;9.45;;;14.90;82.00;;;;;;5017026;28;20099;-74
2022/08/27 06:03:36;;;;;;;12.82;8.73;;;15.00;81.80;;;;;;5020142;28;20525;-72
2022/08/27 06:06:04;;;;;;;13.73;10.43;;;15.10;81.80;;;;;;5011654;28;20104;-73
2022/08/27 06:08:30;;;;;;;14.48;10.10;;;15.10;81.90;;;;;;5023113;28;20472;-73
2022/08/27 06:10:56;;;;;;;16.02;12.13;;;15.10;82.30;;;;;;5018364;28;20049;-72
2022/08/27 06:13:22;;;;;;;12.82;10.35;;;15.10;82.60;;;;;;5014531;28;20042;-72
2022/08/27 06:15:49;;;;;;;19.27;13.68;;;15.20;82.70;;;;;;5017733;28;20045;-74
2022/08/27 06:18:15;;;;;;;14.18;11.20;;;15.30;82.80;;;;;;5018598;28;20084;-72
2022/08/27 06:20:40;;;;;;;16.67;12.18;;;15.40;82.70;;;;;;5012042;28;20124;-72
2022/08/27 06:23:06;;;;;;;27.60;14.52;;;15.50;82.90;;;;;;5014905;28;20167;-73
2022/08/27 06:25:32;;;;;;;20.33;13.45;;;15.60;82.90;;;;;;5021027;28;20181;-73
2022/08/27 06:27:58;;;;;;;21.33;14.85;;;15.70;83.00;;;;;;5010821;28;20038;-72
2022/08/27 06:30:24;;;;;;;27.50;15.45;;;15.70;83.00;;;;;;5014346;28;20050;-71
2022/08/27 06:32:50;;;;;;;19.83;15.18;;;15.80;83.00;;;;;;5015695;28;20037;-73
2022/08/27 06:35:17;;;;;;;20.02;15.27;;;15.90;83.10;;;;;;5018475;28;20030;-73
2022/08/27 06:37:43;;;;;;;20.05;13.70;;;16.00;83.00;;;;;;5015338;28;20033;-73
2022/08/27 06:40:09;;;;;;;21.55;15.27;;;16.10;82.90;;;;;;5008991;28;20532;-73
2022/08/27 06:42:36;;;;;;;22.60;15.98;;;16.20;82.50;;;;;;5015004;28;20505;-73
2022/08/27 06:45:02;;;;;;;21.88;14.45;;;16.40;82.50;;;;;;5008202;28;20048;-73
2022/08/27 06:47:31;;;;;;;21.48;15.25;;;16.50;82.20;;;;;;5016276;28;20494;-73
2022/08/27 06:49:57;;;;;;;19.65;14.05;;;16.60;81.50;;;;;;5013700;28;20038;-73
2022/08/27 06:52:23;;;;;;;18.33;13.35;;;16.80;81.50;;;;;;5011164;28;20040;-71
2022/08/27 06:54:49;;;;;;;19.13;13.73;;;16.90;81.30;;;;;;5009457;28;20413;-72
2022/08/27 06:57:15;;;;;;;17.92;13.80;;;17.10;80.70;;;;;;5019583;28;20095;-72
2022/08/27 06:59:41;;;;;;;21.70;13.13;;;17.20;80.20;;;;;;5018011;28;20044;-72
2022/08/27 07:02:06;;;;;;;17.55;13.20;;;17.30;79.80;;;;;;5007708;28;20030;-72
2022/08/27 07:04:32;;;;;;;22.73;13.10;;;17.40;79.40;;;;;;5017146;28;20458;-72
2022/08/27 07:07:00;;;;;;;23.45;12.82;;;17.60;78.80;;;;;;5016058;28;20029;-73
2022/08/27 07:09:25;;;;;;;17.85;12.93;;;17.80;78.40;;;;;;5017250;28;20509;-72
2022/08/27 07:11:51;;;;;;;17.27;13.73;;;17.90;78.00;;;;;;5010113;28;20125;-72
2022/08/27 07:14:17;;;;;;;18.73;13.60;;;18.10;78.20;;;;;;5010862;28;20037;-73
2022/08/27 07:16:43;;;;;;;18.52;12.95;;;18.30;77.20;;;;;;5012002;28;20056;-72
2022/08/27 07:19:08;;;;;;;20.27;12.48;;;18.40;76.30;;;;;;5006740;28;20117;-73
2022/08/27 07:21:35;;;;;;;17.83;12.75;;;18.60;76.50;;;;;;5017883;28;20099;-73
2022/08/27 07:24:06;;;;;;;19.77;11.90;;;18.70;75.30;;;;;;5016206;28;20041;-72
2022/08/27 07:26:35;;;;;;;19.05;12.43;;;18.80;74.90;;;;;;5006379;28;20030;-73
2022/08/27 07:29:04;;;;;;;17.23;11.25;;;19.00;75.10;;;;;;5008774;28;20041;-74
2022/08/27 07:31:30;;;;;;;19.55;11.15;;;19.20;74.60;;;;;;5009766;28;20107;-73
2022/08/27 07:33:56;;;;;;;19.52;11.73;;;19.40;73.90;;;;;;5023717;28;20041;-72
2022/08/27 07:36:23;;;;;;;16.73;11.35;;;19.60;73.00;;;;;;5012664;28;20038;-73
2022/08/27 07:38:50;;;;;;;20.10;11.15;;;19.80;72.50;;;;;;5007276;28;20103;-72
2022/08/27 07:41:16;;;;;;;15.30;10.40;;;20.00;72.20;;;;;;5030641;28;20057;-73
2022/08/27 07:46:26;;;;;;;15.65;8.23;;;20.00;70.90;;;;;;5018005;28;20453;-73
2022/08/27 07:48:55;;;;;;;13.15;7.45;;;20.20;69.40;;;;;;5020017;28;20034;-72
2022/08/27 07:51:22;;;;;;;12.52;7.32;;;20.30;69.40;;;;;;5010330;28;20042;-73
2022/08/27 07:53:48;;;;;;;13.77;6.25;;;20.40;68.10;;;;;;5022146;28;20049;-73
2022/08/27 07:56:14;;;;;;;12.18;6.43;;;20.30;67.00;;;;;;5012835;28;20149;-73
2022/08/27 07:58:40;;;;;;;13.55;6.50;;;20.50;67.20;;;;;;5018673;28;20099;-73
2022/08/27 08:01:06;;;;;;;10.65;6.30;;;20.60;66.60;;;;;;5024362;28;20458;-73
2022/08/27 08:03:32;;;;;;;12.70;6.68;;;20.70;67.20;;;;;;5051142;28;20030;-75
2022/08/27 08:06:10;;;;;;;11.70;5.72;;;20.90;66.50;;;;;;5019012;28;20049;-73
2022/08/27 08:08:39;;;;;;;8.82;5.07;;;21.20;65.50;;;;;;5023654;28;20041;-73
2022/08/27 08:11:06;;;;;;;7.93;3.50;;;21.50;65.10;;;;;;5014607;28;20061;-73
2022/08/27 08:13:32;;;;;;;9.45;3.60;;;21.60;63.30;;;;;;5025796;28;20067;-73
2022/08/27 08:15:58;;;;;;;9.95;3.40;;;21.80;61.50;;;;;;5012431;28;20454;-72
2022/08/27 08:18:24;;;;;;;10.82;3.20;;;22.00;62.60;;;;;;5019008;28;20030;-73
2022/08/27 08:20:50;;;;;;;8.65;3.33;;;22.20;60.20;;;;;;5019677;28;20053;-73
2022/08/27 08:23:15;;;;;;;7.63;3.42;;;22.20;60.10;;;;;;5019510;28;20044;-73
2022/08/27 08:25:41;;;;;;;8.95;3.30;;;22.00;60.40;;;;;;5019145;28;20164;-72
2022/08/27 08:28:07;;;;;;;11.20;3.65;;;21.80;60.10;;;;;;5025573;28;20095;-73
2022/08/27 08:30:33;;;;;;;9.27;3.58;;;21.40;61.70;;;;;;5016833;28;20057;-73
2022/08/27 08:32:59;;;;;;;10.55;3.47;;;21.30;62.10;;;;;;5018474;28;20038;-73
2022/08/27 08:35:25;;;;;;;9.52;3.97;;;21.10;62.80;;;;;;5013996;28;20585;-73
2022/08/27 08:37:50;;;;;;;9.65;3.97;;;21.20;62.90;;;;;;5015828;28;20037;-72
2022/08/27 08:40:40;;;;;;;11.30;4.38;;;21.40;62.50;;;;;;5021540;28;20046;-72
2022/08/27 08:43:39;;;;;;;11.02;4.38;;;21.30;62.00;;;;;;5023451;28;20160;-74
2022/08/27 08:46:23;;;;;;;9.50;4.68;;;21.10;62.40;;;;;;5011666;28;20041;-73
2022/08/27 08:48:54;;;;;;;8.05;3.90;;;21.00;63.20;;;;;;5015891;28;20061;-74
2022/08/27 08:51:31;;;;;;;9.70;3.90;;;21.30;62.90;;;;;;5017098;28;20425;-72
2022/08/27 08:54:02;;;;;;;9.05;4.18;;;21.70;62.40;;;;;;5023426;28;20180;-73
2022/08/27 08:56:39;;;;;;;11.68;3.53;;;21.90;60.60;;;;;;5017733;28;20046;-72
2022/08/27 08:59:09;;;;;;;8.35;3.30;;;21.60;61.30;;;;;;5017382;28;20040;-74
2022/08/27 09:01:35;;;;;;;9.20;3.33;;;21.90;61.30;;;;;;5018998;28;20426;-72
2022/08/27 09:04:04;;;;;;;9.55;3.20;;;22.40;59.50;;;;;;5015290;28;20036;-72
2022/08/27 09:07:00;;;;;;;7.63;3.05;;;22.80;58.80;;;;;;5020018;28;20030;-73
2022/08/27 09:09:50;;;;;;;7.90;2.55;;;23.20;57.60;;;;;;5014660;28;20108;-72
2022/08/27 09:12:21;;;;;;;7.70;2.67;;;23.60;55.30;;;;;;5015983;28;20065;-73
2022/08/27 09:15:06;;;;;;;6.18;2.70;;;24.20;54.60;;;;;;5012095;28;20037;-72
2022/08/27 09:17:32;;;;;;;8.95;2.85;;;24.30;53.70;;;;;;5012111;28;20032;-73
2022/08/27 09:19:58;;;;;;;9.05;3.10;;;23.90;52.50;;;;;;5013018;28;20034;-72
2022/08/27 09:22:48;;;;;;;6.95;3.10;;;23.60;54.20;;;;;;5011610;28;20276;-73
2022/08/27 09:25:25;;;;;;;6.05;2.75;;;23.50;55.40;;;;;;5010842;28;20046;-73
2022/08/27 09:27:54;;;;;;;6.10;2.80;;;23.50;54.40;;;;;;5016899;28;20033;-73
2022/08/27 09:30:24;;;;;;;10.00;3.22;;;23.20;55.50;;;;;;5011611;28;20046;-73
2022/08/27 09:32:58;;;;;;;7.28;2.85;;;22.90;56.20;;;;;;5021626;28;20469;-73
2022/08/27 09:35:25;;;;;;;7.10;2.67;;;23.10;56.20;;;;;;5010783;28;20048;-73
2022/08/27 09:37:54;;;;;;;5.72;2.45;;;23.00;55.20;;;;;;5009504;28;20085;-73
2022/08/27 09:40:52;;;;;;;7.68;2.60;;;22.90;56.00;;;;;;5012034;28;20034;-73
2022/08/27 09:43:27;;;;;;;4.88;2.28;;;23.30;54.10;;;;;;5008240;28;20069;-73
2022/08/27 09:45:59;;;;;;;9.95;2.25;;;23.60;52.30;;;;;;5016482;28;20494;-75
2022/08/27 09:48:35;;;;;;;6.25;2.40;;;23.80;52.30;;;;;;5016533;28;20040;-73
2022/08/27 09:51:11;;;;;;;7.88;2.72;;;24.10;51.90;;;;;;5015804;28;20189;-74
2022/08/27 09:53:49;;;;;;;6.85;2.20;;;23.90;52.90;;;;;;5009734;28;20036;-73
2022/08/27 09:56:32;;;;;;;6.13;2.40;;;23.80;52.40;;;;;;5020672;28;20037;-73
2022/08/27 09:59:11;;;;;;;8.88;2.70;;;23.90;53.30;;;;;;5023493;28;20038;-73
2022/08/27 10:02:13;;;;;;;8.48;2.53;;;23.60;53.10;;;;;;5004276;28;20116;-72
2022/08/27 10:04:43;;;;;;;6.95;2.65;;;23.90;53.00;;;;;;5018254;28;20068;-72
2022/08/27 10:07:36;;;;;;;8.30;3.00;;;23.50;54.50;;;;;;5030236;28;20038;-73
2022/08/27 10:10:12;;;;;;;6.85;2.58;;;23.30;54.90;;;;;;5019136;28;20096;-73
2022/08/27 10:13:16;;;;;;;7.85;2.58;;;22.90;56.30;;;;;;5021423;28;20042;-72
2022/08/27 10:15:53;;;;;;;6.68;2.45;;;22.80;55.90;;;;;;5010637;28;20121;-73
2022/08/27 10:18:45;;;;;;;8.43;2.72;;;22.60;56.40;;;;;;5014342;28;20153;-72
2022/08/27 10:21:13;;;;;;;8.65;2.50;;;22.40;57.00;;;;;;5013838;28;20056;-73
2022/08/27 10:23:53;;;;;;;7.82;2.60;;;22.10;57.40;;;;;;5020626;28;20034;-73
2022/08/27 10:26:30;;;;;;;8.20;2.70;;;22.20;56.60;;;;;;5015300;28;20496;-72
2022/08/27 10:29:53;;;;;;;6.15;2.22;;;22.10;56.40;;;;;;5019242;28;20045;-73
2022/08/27 10:32:30;;;;;;;7.47;2.45;;;22.10;56.30;;;;;;4947009;28;20391;-73
2022/08/27 10:35:11;;;;;;;6.80;2.95;;;22.30;55.50;;;;;;4952390;28;20043;-73
2022/08/27 10:38:04;;;;;;;8.98;2.80;;;22.10;55.90;;;;;;4992356;28;20080;-73
2022/08/27 10:40:52;;;;;;;5.95;2.60;;;22.10;57.00;;;;;;5053838;28;20114;-74
2022/08/27 10:43:37;;;;;;;6.78;2.55;;;22.20;56.80;;;;;;5009326;28;20030;-75
2022/08/27 10:46:27;;;;;;;6.15;2.45;;;22.50;56.20;;;;;;5011880;28;20490;-75
2022/08/27 10:49:25;;;;;;;5.40;2.22;;;22.40;56.50;;;;;;5018972;28;20146;-74
2022/08/27 10:51:55;;;;;;;7.28;2.40;;;22.60;57.00;;;;;;5018066;28;20099;-73
2022/08/27 10:54:35;;;;;;;6.50;2.50;;;22.80;56.20;;;;;;5017415;28;20235;-73
2022/08/27 10:57:15;;;;;;;11.10;3.17;;;23.00;55.10;;;;;;5009107;28;20029;-73
2022/08/27 11:00:12;;;;;;;8.68;2.83;;;23.00;54.90;;;;;;5020119;28;20060;-73
2022/08/27 11:02:52;;;;;;;7.60;2.28;;;22.60;55.80;;;;;;5015426;28;20034;-73
2022/08/27 11:05:52;;;;;;;9.43;2.50;;;22.90;56.40;;;;;;5012058;28;20128;-74
2022/08/27 11:08:26;;;;;;;6.38;2.60;;;22.90;56.10;;;;;;4984182;28;20041;-73
2022/08/27 11:11:00;;;;;;;6.15;2.35;;;23.10;54.10;;;;;;5013953;28;20132;-72
2022/08/27 11:13:34;;;;;;;6.07;2.55;;;23.60;54.70;;;;;;5005230;28;20041;-72
2022/08/27 11:16:05;;;;;;;8.35;2.83;;;24.30;53.10;;;;;;5020394;28;20049;-75
2022/08/27 11:18:46;;;;;;;8.40;2.97;;;24.40;51.10;;;;;;5040299;28;20029;-72
2022/08/27 11:21:21;;;;;;;7.32;2.40;;;24.40;51.10;;;;;;5012428;28;20551;-73
2022/08/27 11:23:53;;;;;;;6.97;2.65;;;24.10;50.20;;;;;;5015616;28;20129;-73
2022/08/27 11:26:18;;;;;;;6.53;2.33;;;24.00;50.10;;;;;;5015456;28;20038;-74
2022/08/27 11:28:54;;;;;;;5.68;2.10;;;24.00;50.30;;;;;;5017679;28;20460;-73
2022/08/27 11:31:20;;;;;;;8.80;2.50;;;23.70;51.20;;;;;;5008964;28;20057;-73
2022/08/27 11:34:09;;;;;;;6.82;2.25;;;23.60;51.40;;;;;;5003129;28;20406;-73
2022/08/27 11:37:13;;;;;;;6.85;2.40;;;24.20;49.90;;;;;;5009964;28;20068;-73
2022/08/27 11:39:51;;;;;;;6.57;2.50;;;24.10;49.90;;;;;;5040619;28;20070;-74
2022/08/27 11:42:32;;;;;;;7.28;2.38;;;23.90;50.20;;;;;;5004811;28;20292;-74
2022/08/27 11:45:07;;;;;;;6.72;2.00;;;24.30;50.60;;;;;;5014724;28;20044;-73
2022/08/27 11:47:33;;;;;;;6.85;2.25;;;24.20;49.50;;;;;;5018880;28;20044;-73
2022/08/27 11:50:01;;;;;;;5.78;2.20;;;24.50;48.80;;;;;;5021559;28;20041;-73
2022/08/27 11:52:52;;;;;;;6.20;1.90;;;25.00;48.00;;;;;;5007089;28;20461;-73
2022/08/27 11:55:20;;;;;;;7.72;2.08;;;25.10;47.50;;;;;;5013390;28;20096;-72
2022/08/27 11:58:01;;;;;;;7.32;2.00;;;25.20;47.70;;;;;;5018193;28;20053;-73
2022/08/27 12:00:29;;;;;;;7.03;2.00;;;25.00;47.30;;;;;;4995627;28;20053;-73
2022/08/27 12:03:04;;;;;;;8.20;2.22;;;25.00;47.00;;;;;;4989511;28;20039;-73
2022/08/27 12:05:52;;;;;;;8.80;1.90;;;25.00;45.50;;;;;;4994642;28;20038;-75
2022/08/27 12:08:21;;;;;;;5.03;1.70;;;24.60;46.30;;;;;;4972139;28;20487;-72
2022/08/27 12:10:59;;;;;;;4.43;1.80;;;24.50;45.00;;;;;;4998089;28;20520;-73
2022/08/27 12:13:27;;;;;;;3.83;1.63;;;24.60;46.30;;;;;;5019731;28;20430;-74
2022/08/27 12:16:29;;;;;;;5.78;1.70;;;25.00;44.40;;;;;;4988306;28;20477;-73
2022/08/27 12:19:27;;;;;;;4.60;1.80;;;25.20;44.80;;;;;;4986149;28;20053;-73
2022/08/27 12:22:12;;;;;;;8.05;1.80;;;25.40;44.30;;;;;;5006513;28;20041;-73
2022/08/27 12:24:53;;;;;;;6.60;1.90;;;25.30;45.20;;;;;;5017485;28;20046;-73
2022/08/27 12:27:24;;;;;;;5.95;2.03;;;25.80;45.70;;;;;;5008179;28;20133;-72
2022/08/27 12:29:58;;;;;;;4.93;1.85;;;25.40;46.10;;;;;;5008259;28;20042;-73
2022/08/27 12:32:38;;;;;;;6.50;2.13;;;25.30;46.90;;;;;;5008984;28;20052;-73
2022/08/27 12:35:23;;;;;;;6.25;2.00;;;25.20;47.20;;;;;;5008052;28;20726;-73
2022/08/27 12:38:01;;;;;;;;;;;24.90;46.80;;;;;;5016451;28;20041;-73
2022/08/27 12:40:45;;;;;;;5.13;1.90;;;24.50;47.60;;;;;;5052446;28;20454;-74
2022/08/27 12:43:14;;;;;;;5.10;1.70;;;24.70;47.80;;;;;;5026987;28;20060;-72
2022/08/27 12:45:54;;;;;;;5.57;1.90;;;25.10;46.60;;;;;;5016885;28;20065;-72
2022/08/27 12:48:24;;;;;;;5.13;2.20;;;25.40;46.90;;;;;;5018915;28;20076;-73
2022/08/27 12:50:58;;;;;;;7.82;2.15;;;25.20;46.80;;;;;;5022046;28;20052;-72
2022/08/27 12:53:43;;;;;;;5.85;2.03;;;24.80;46.80;;;;;;5021474;28;20045;-73
2022/08/27 12:56:22;;;;;;;5.75;2.28;;;24.40;48.00;;;;;;5013222;28;20072;-73
2022/08/27 12:59:00;;;;;;;5.68;1.92;;;24.30;48.60;;;;;;5014464;28;20041;-72
2022/08/27 13:01:35;;;;;;;6.85;2.15;;;24.30;49.80;;;;;;5015467;28;20030;-72
2022/08/27 13:04:01;;;;;;;7.03;2.15;;;24.30;49.80;;;;;;5008747;28;20228;-73
2022/08/27 13:06:35;;;;;;;6.90;2.00;;;24.10;50.80;;;;;;5022236;28;20030;-73
2022/08/27 13:09:02;;;;;;;;;;;24.10;52.30;;;;;;5010277;28;20414;-73